Hewittville, New York
Current Conditions -  °F | °C
As of 7:53 AM on Wednesday 22 Oct 2014 (Local Time) from KMSS Reporting Station
Overcast Overcast  
Wind Chill: 39°   Ceiling: 2300
Heat Index: 45°   Visibility: 10mi
Dew Point: 35°   Wind: 13mph
Humidity: 68%   Direction: 40°NE
Pressure: 30.24"   Gusts: 22mph
Location:  44.7612°N, 74.9585°W
Report Text: KMSS 221153Z AUTO 04011G19KT 10SM OVC023 07/02 A3024 RMK AO2 SLP242 T00720017 10072 20067 53019
Loading
Personal Weather Stations






























Interactive Weather Map New forecast layout! Learn more

10-Day Weather Forecast

Advertisements
Track Severe Weather on mobile